Pagrindinis puslapis
METAR-TAF:

METAR-TAF

Oro uostai :

Šeleftėjas, Švedija

platuma: 64-38N, ilguma: 021-05E, Aukštis: 49 m

Dabartinis oras

Ataskaita buvo paskelbta 20 minutes, ne 03:50 UTC
Vėjas 9 kt iš Vakarų/Šiaurės Vakarų
Temperatūra -15°C
Drėgmė 85%
Slėgis 991 hPa
Matomumas 10 km arba daugiau

METAR: ESNS 010350Z AUTO 30009KT 9999 NCD M15/M17 Q0991

Laikas: 05:10 (04:10 UTC)

Prognozė

Ataskaita buvo paskelbta 13 valandos ir 40 minutes, ne 14:30 UTC
Prognozė galioja nuo 30 metu 15 UTC su 30 metu 19 UTC
Vėjas 8 kt iš Šiaurės
Matomumas 10 km arba daugiau
Išsisklaidę debesys ne aukštis 500 ft
Laikinai
nuo 30 metu 15 UTC su 30 metu 19 UTC
Matomumas: 3000 m
Su prošvaistėmis ne aukštis 1200 ft
sniegas

TAF: ESNS 301430Z 3015/3019 35008KT 9999 SCT005 TEMPO 3015/3019 3000 -SN BKN012

Orai ataskaitas ir orų prognozės (METAR, TAF).

turimą stotys yra geltonos ir raudonos taškus žemėlapyje.

Perkelti pele per norėdami pamatyti stoties vardą.

Tada spustelėkite, norėdami matyti oro stebėjimo ir prognozės.

Norėdami pakeisti žemėlapį: spustelėkite ant žalios mygtukų su juodo kryžiaus žemyn,; žalią mygtuką su brūkšneliu, jei norite nutolinti; arba žalių rodyklių gretimoms žemėlapius.


METAR-TAF: